Time;durP1;ratioP1;P1;durP2;ratioP2;P2;SDS_P1;SDS_P2;PMS_P1;PMS_P2;Temp;Humidity;BMP_temperature;BMP_pressure;BME280_temperature;BME280_humidity;BME280_pressure;Samples;Min_cycle;Max_cycle;Signal;HPM_P1;HPM_P2
2022/05/10 00:02:19;;;;;;;6.93;6.25;;;11.50;99.90;12.60;94698.00;;;;7392525;19;20133;-77
2022/05/10 00:04:51;;;;;;;9.45;6.75;;;11.50;99.90;12.60;94706.00;;;;7391480;19;20129;-77
2022/05/10 00:07:21;;;;;;;7.93;6.22;;;11.50;99.90;12.80;94706.00;;;;7393148;19;20149;-78
2022/05/10 00:09:54;;;;;;;8.27;6.70;;;11.50;99.90;12.90;94715.00;;;;7391888;19;20140;-77
2022/05/10 00:12:21;;;;;;;8.88;6.72;;;11.60;99.90;12.90;94717.00;;;;7392685;19;20133;-77
2022/05/10 00:14:48;;;;;;;6.82;6.05;;;11.70;99.90;13.00;94703.00;;;;7391266;19;20131;-77
2022/05/10 00:17:36;;;;;;;7.15;6.55;;;11.80;99.90;12.80;94714.00;;;;7391268;19;20148;-78
2022/05/10 00:20:07;;;;;;;8.50;6.15;;;11.80;99.90;12.50;94717.00;;;;7390780;19;20140;-77
2022/05/10 00:22:41;;;;;;;14.43;6.68;;;11.70;99.90;12.40;94693.00;;;;7392527;19;20125;-77
2022/05/10 00:25:12;;;;;;;8.75;6.32;;;11.60;99.90;12.50;94699.00;;;;7393076;19;20137;-77
2022/05/10 00:27:39;;;;;;;7.88;6.60;;;11.50;99.90;12.50;94689.00;;;;7392173;19;20125;-77
2022/05/10 00:30:14;;;;;;;6.80;6.20;;;11.50;99.90;12.30;94714.00;;;;7393398;19;20162;-78
2022/05/10 00:32:42;;;;;;;9.73;7.35;;;11.40;99.90;12.30;94710.00;;;;7392016;19;20164;-77
2022/05/10 00:35:22;;;;;;;7.18;6.47;;;11.40;99.90;12.30;94720.00;;;;7393425;19;20753;-78
2022/05/10 00:38:00;;;;;;;7.43;6.72;;;11.40;99.90;12.40;94712.00;;;;7392125;19;20142;-77
2022/05/10 00:40:32;;;;;;;6.95;6.35;;;11.40;99.90;12.30;94690.00;;;;7395641;19;20144;-77
2022/05/10 00:43:36;;;;;;;6.95;6.25;;;11.40;99.90;12.20;94719.00;;;;7399337;19;20495;-78
2022/05/10 00:46:16;;;;;;;7.45;6.75;;;11.40;99.90;12.30;94701.00;;;;7398748;19;20139;-77
2022/05/10 00:49:18;;;;;;;7.38;6.22;;;11.30;99.90;12.30;94683.00;;;;7398755;19;20607;-77
2022/05/10 00:51:52;;;;;;;7.35;6.70;;;11.30;1.00;12.30;94685.00;;;;7398851;19;20141;-77
2022/05/10 00:54:44;;;;;;;8.48;7.38;;;11.30;1.00;12.10;94684.00;;;;7397954;19;20121;-77
2022/05/10 00:57:42;;;;;;;7.78;7.07;;;11.30;1.00;12.10;94709.00;;;;7397717;19;20165;-78
2022/05/10 01:00:27;;;;;;;7.32;6.63;;;11.20;1.00;12.10;94700.00;;;;7396005;19;20141;-76
2022/05/10 01:03:41;;;;;;;7.88;7.07;;;11.20;1.00;12.10;94671.00;;;;7399533;19;20195;-78
2022/05/10 01:06:30;;;;;;;8.02;7.18;;;11.10;1.00;12.10;94685.00;;;;7397933;19;20208;-76
2022/05/10 01:09:15;;;;;;;8.00;7.18;;;11.10;1.00;12.10;94658.00;;;;7397684;19;20154;-77
2022/05/10 01:12:09;;;;;;;8.40;7.60;;;11.10;1.00;12.00;94663.00;;;;7398876;19;20143;-77
2022/05/10 01:14:57;;;;;;;11.02;7.18;;;11.10;1.00;11.90;94677.00;;;;7397451;19;20752;-76
2022/05/10 01:17:31;;;;;;;8.60;7.40;;;11.00;1.00;12.10;94651.00;;;;7398787;19;20125;-77
2022/05/10 01:19:59;;;;;;;10.10;7.40;;;11.10;1.00;12.20;94665.00;;;;7396903;19;20533;-76
2022/05/10 01:22:53;;;;;;;10.60;7.22;;;11.10;1.00;12.40;94648.00;;;;7399232;19;20134;-78
2022/05/10 01:26:01;;;;;;;8.02;7.22;;;11.30;1.00;12.80;94636.00;;;;7399462;19;20153;-77
2022/05/10 01:28:52;;;;;;;10.70;7.15;;;11.50;99.90;12.90;94664.00;;;;7397410;19;20606;-77
2022/05/10 01:31:34;;;;;;;7.72;6.75;;;11.70;99.90;12.90;94656.00;;;;7397103;19;20150;-77
2022/05/10 01:34:10;;;;;;;7.07;6.45;;;11.70;99.90;13.00;94634.00;;;;7397708;19;20501;-74
2022/05/10 01:36:59;;;;;;;10.80;6.65;;;11.80;99.90;13.10;94643.00;;;;7397519;19;20128;-78
2022/05/10 01:39:35;;;;;;;7.63;6.53;;;12.00;99.90;13.10;94629.00;;;;7397603;19;20599;-78
2022/05/10 01:42:21;;;;;;;9.93;6.88;;;12.00;99.90;12.90;94642.00;;;;7398901;19;20220;-75
2022/05/10 01:45:01;;;;;;;9.38;6.72;;;11.90;99.90;12.60;94649.00;;;;7396302;19;20132;-74
2022/05/10 01:47:50;;;;;;;7.65;6.95;;;11.80;99.90;12.40;94641.00;;;;7398526;19;20496;-75
2022/05/10 01:50:25;;;;;;;9.30;6.93;;;11.70;99.90;12.40;94619.00;;;;7396051;19;20736;-75
2022/05/10 01:53:23;;;;;;;8.75;6.50;;;11.60;99.90;12.50;94644.00;;;;7398212;19;20121;-75
2022/05/10 01:56:04;;;;;;;8.00;7.25;;;11.60;99.90;12.50;94634.00;;;;7395732;19;20140;-76
2022/05/10 01:58:47;;;;;;;7.93;7.22;;;11.60;99.90;12.50;94620.00;;;;7397368;19;20117;-76
2022/05/10 02:01:17;;;;;;;12.18;7.18;;;11.60;99.90;12.70;94646.00;;;;7396218;19;20619;-76
2022/05/10 02:04:26;;;;;;;8.38;7.40;;;11.60;99.90;12.80;94625.00;;;;7398702;19;20141;-77
2022/05/10 02:07:14;;;;;;;8.48;7.63;;;11.70;99.90;13.00;94635.00;;;;7400566;19;20630;-77
2022/05/10 02:10:08;;;;;;;8.30;7.22;;;11.80;99.90;12.90;94615.00;;;;7400941;19;20477;-76
2022/05/10 02:12:59;;;;;;;7.65;6.95;;;11.90;99.90;12.70;94624.00;;;;7402304;19;20200;-75
2022/05/10 02:16:22;;;;;;;8.07;7.25;;;11.90;99.90;12.60;94618.00;;;;7397630;19;20587;-75
2022/05/10 02:19:12;;;;;;;7.78;6.78;;;11.80;99.90;12.40;94617.00;;;;7396505;19;20149;-77
2022/05/10 02:21:59;;;;;;;7.65;6.72;;;11.70;99.90;12.30;94638.00;;;;7394389;19;20141;-76
2022/05/10 02:24:40;;;;;;;8.30;6.75;;;11.50;99.90;12.20;94632.00;;;;7396869;19;20166;-76
2022/05/10 02:27:27;;;;;;;8.27;7.05;;;11.50;99.90;12.30;94626.00;;;;7396920;19;20125;-75
2022/05/10 02:30:04;;;;;;;8.15;7.35;;;11.50;99.90;12.30;94636.00;;;;7395940;19;20131;-75
2022/05/10 02:33:09;;;;;;;8.10;7.30;;;11.40;99.90;12.00;94625.00;;;;7395825;19;20164;-76
2022/05/10 02:35:46;;;;;;;9.95;8.27;;;11.30;1.00;12.10;94630.00;;;;7395865;19;20140;-77
2022/05/10 02:38:25;;;;;;;9.10;7.97;;;11.20;1.00;12.30;94631.00;;;;7396598;19;20128;-77
2022/05/10 02:40:56;;;;;;;7.88;6.85;;;11.30;1.00;12.40;94604.00;;;;7393747;19;20160;-77
2022/05/10 02:43:46;;;;;;;9.02;6.97;;;11.30;1.00;12.50;94580.00;;;;7394444;19;20144;-78
2022/05/10 02:46:13;;;;;;;9.30;7.40;;;11.40;1.00;12.50;94602.00;;;;7394160;19;20133;-78
2022/05/10 02:48:49;;;;;;;10.95;7.78;;;11.40;1.00;12.60;94616.00;;;;7394647;19;20136;-77
2022/05/10 02:51:18;;;;;;;7.90;7.10;;;11.50;99.90;12.60;94597.00;;;;7394863;19;20140;-77
2022/05/10 02:53:46;;;;;;;7.60;6.80;;;11.50;99.90;12.50;94616.00;;;;7394114;19;20124;-77
2022/05/10 02:56:31;;;;;;;7.68;6.63;;;11.50;99.90;12.70;94598.00;;;;7393288;19;20171;-76
2022/05/10 02:59:20;;;;;;;9.02;6.65;;;11.60;99.90;12.60;94627.00;;;;7395148;19;20139;-76
2022/05/10 03:02:03;;;;;;;9.52;7.43;;;11.60;99.90;12.60;94595.00;;;;7391568;19;20137;-76
2022/05/10 03:04:42;;;;;;;9.40;7.20;;;11.60;99.90;12.80;94616.00;;;;7395670;19;20598;-77
2022/05/10 03:07:16;;;;;;;15.27;7.28;;;11.70;99.90;12.90;94599.00;;;;7395370;19;20117;-78
2022/05/10 03:09:43;;;;;;;9.93;7.55;;;11.80;99.90;13.00;94607.00;;;;7394346;19;20826;-77
2022/05/10 03:12:11;;;;;;;7.78;7.07;;;11.80;99.90;12.80;94586.00;;;;7393507;19;20159;-77
2022/05/10 03:14:45;;;;;;;7.97;6.57;;;11.80;99.90;12.90;94612.00;;;;7394918;19;20485;-76
2022/05/10 03:17:13;;;;;;;9.00;7.13;;;11.80;99.90;12.90;94593.00;;;;7394163;19;20144;-77
2022/05/10 03:19:42;;;;;;;7.63;6.88;;;11.80;99.90;13.00;94615.00;;;;7393212;19;20143;-77
2022/05/10 03:22:15;;;;;;;11.52;7.13;;;11.90;63.20;13.20;94609.00;;;;7391302;19;20136;-77
2022/05/10 03:24:43;;;;;;;10.38;7.35;;;12.00;16.50;12.90;94583.00;;;;7392948;19;20141;-76
2022/05/10 03:27:12;;;;;;;8.65;7.45;;;11.90;79.10;13.10;94589.00;;;;7394027;19;20193;-76
2022/05/10 03:29:45;;;;;;;7.95;7.15;;;12.00;1.00;13.30;94609.00;;;;7392928;19;20167;-76
2022/05/10 03:32:13;;;;;;;7.32;6.60;;;12.10;1.00;13.30;94579.00;;;;7393023;19;20166;-76
2022/05/10 03:34:57;;;;;;;8.70;6.75;;;12.20;1.00;12.90;94589.00;;;;7392449;19;20132;-76
2022/05/10 03:37:31;;;;;;;7.32;6.63;;;12.10;33.10;12.60;94593.00;;;;7392230;19;20152;-76
2022/05/10 03:39:59;;;;;;;8.60;7.05;;;11.90;99.90;12.50;94611.00;;;;7393684;19;20608;-76
2022/05/10 03:42:27;;;;;;;8.32;7.28;;;11.70;99.90;12.50;94610.00;;;;7392683;19;20140;-77
2022/05/10 03:45:09;;;;;;;7.55;6.85;;;11.70;99.90;12.50;94599.00;;;;7392398;19;20579;-78
2022/05/10 03:47:36;;;;;;;7.57;6.88;;;11.60;99.90;12.40;94621.00;;;;7392286;19;20166;-77
2022/05/10 03:50:10;;;;;;;6.97;6.38;;;11.60;99.90;12.30;94624.00;;;;7393193;19;20139;-78
2022/05/10 03:52:40;;;;;;;7.97;7.28;;;11.50;99.90;12.30;94599.00;;;;7393041;19;20603;-77
2022/05/10 03:55:12;;;;;;;9.20;7.80;;;11.40;99.90;12.20;94587.00;;;;7391675;19;20143;-77
2022/05/10 03:57:53;;;;;;;10.05;7.97;;;11.30;1.00;12.20;94620.00;;;;7389592;19;20176;-77
2022/05/10 04:00:25;;;;;;;8.52;7.72;;;11.30;1.00;12.40;94583.00;;;;7391328;19;20125;-76
2022/05/10 04:02:59;;;;;;;8.38;7.05;;;11.30;1.00;12.30;94595.00;;;;7392888;19;20137;-76
2022/05/10 04:05:28;;;;;;;7.47;6.68;;;11.30;1.00;12.30;94605.00;;;;7393597;19;20152;-77
2022/05/10 04:07:55;;;;;;;10.35;7.53;;;11.30;1.00;12.60;94591.00;;;;7393419;19;20133;-77
2022/05/10 04:10:29;;;;;;;9.38;6.88;;;11.40;1.00;12.70;94608.00;;;;7391605;19;20184;-76
2022/05/10 04:12:56;;;;;;;9.13;7.47;;;11.50;99.90;12.80;94589.00;;;;7392770;19;20141;-76
2022/05/10 04:15:24;;;;;;;8.25;7.32;;;11.60;99.90;13.00;94600.00;;;;7388873;19;20124;-77
2022/05/10 04:17:58;;;;;;;8.43;7.63;;;11.70;99.90;13.10;94579.00;;;;7391367;19;20144;-78
2022/05/10 04:20:25;;;;;;;9.10;7.28;;;11.90;99.90;13.30;94579.00;;;;7391134;19;20147;-76
2022/05/10 04:22:52;;;;;;;9.60;7.30;;;12.10;99.90;13.30;94569.00;;;;7393523;19;20132;-77
2022/05/10 04:25:26;;;;;;;8.52;7.03;;;12.10;89.40;13.30;94577.00;;;;7392570;19;20613;-77
2022/05/10 04:27:55;;;;;;;7.90;6.97;;;12.30;82.70;13.50;94592.00;;;;7392109;19;20574;-77
2022/05/10 04:30:23;;;;;;;8.35;7.28;;;12.40;1.00;14.00;94577.00;;;;7393104;19;20148;-77
2022/05/10 04:32:56;;;;;;;9.48;7.55;;;12.60;1.00;13.90;94577.00;;;;7392832;19;20606;-77
2022/05/10 04:35:23;;;;;;;8.25;6.60;;;12.70;1.00;14.00;94572.00;;;;7393041;19;20141;-76
2022/05/10 04:37:50;;;;;;;11.75;6.85;;;12.80;1.00;13.90;94586.00;;;;7391932;19;20136;-76
2022/05/10 04:43:09;;;;;;;7.72;6.35;;;13.00;1.00;14.30;94581.00;;;;7392244;19;20135;-77
2022/05/10 04:45:43;;;;;;;6.88;6.18;;;13.10;1.00;14.10;94575.00;;;;7392696;19;20140;-78
2022/05/10 04:48:11;;;;;;;8.45;6.15;;;13.10;1.00;14.30;94591.00;;;;7391757;19;20479;-77
2022/05/10 04:50:38;;;;;;;7.10;6.40;;;13.20;1.00;14.20;94588.00;;;;7391571;19;20501;-77
2022/05/10 04:53:15;;;;;;;7.13;6.43;;;13.20;1.00;14.00;94604.00;;;;7390487;19;20140;-77
2022/05/10 04:55:42;;;;;;;8.32;6.68;;;13.20;1.00;14.30;94587.00;;;;7392421;19;20141;-78
2022/05/10 04:58:09;;;;;;;7.38;6.68;;;13.20;1.00;14.40;94582.00;;;;7388243;19;20165;-77
2022/05/10 05:00:42;;;;;;;7.63;6.50;;;13.30;1.00;14.30;94610.00;;;;7391473;19;20129;-79
2022/05/10 05:03:10;;;;;;;9.02;6.45;;;13.30;1.00;14.50;94595.00;;;;7392597;19;20600;-78
2022/05/10 05:05:37;;;;;;;9.45;6.20;;;13.40;1.00;14.50;94584.00;;;;7391152;19;20594;-77
2022/05/10 05:08:10;;;;;;;8.00;5.75;;;13.40;1.00;14.40;94622.00;;;;7390017;19;20596;-79
2022/05/10 05:10:40;;;;;;;8.50;5.65;;;13.50;1.00;14.50;94607.00;;;;7389508;19;20144;-77
2022/05/10 05:13:07;;;;;;;7.78;6.10;;;13.50;1.00;14.60;94605.00;;;;7389908;19;20497;-80
2022/05/10 05:15:41;;;;;;;7.57;5.90;;;13.60;1.00;14.80;94612.00;;;;7390042;19;20157;-76
2022/05/10 05:18:09;;;;;;;6.82;5.97;;;13.70;1.00;15.00;94592.00;;;;7389589;19;20168;-77
2022/05/10 05:20:41;;;;;;;7.15;6.20;;;13.80;1.00;15.20;94604.00;;;;7389275;19;20161;-77
2022/05/10 05:23:18;;;;;;;7.68;6.30;;;13.90;1.00;15.20;94610.00;;;;7390838;19;20133;-75
2022/05/10 05:25:45;;;;;;;7.55;5.70;;;14.00;1.00;15.30;94606.00;;;;7394444;19;20133;-76
2022/05/10 05:28:13;;;;;;;8.02;6.55;;;14.10;1.00;15.50;94599.00;;;;7396171;19;20127;-76
2022/05/10 05:30:47;;;;;;;7.38;5.47;;;14.30;99.90;15.90;94594.00;;;;7399003;19;20129;-77
2022/05/10 05:33:14;;;;;;;6.20;5.55;;;14.50;99.90;16.20;94607.00;;;;7395863;19;20554;-78
2022/05/10 05:35:42;;;;;;;6.50;5.90;;;14.70;99.90;16.50;94631.00;;;;7395842;19;20137;-78
2022/05/10 05:38:16;;;;;;;6.88;6.00;;;15.00;99.90;16.70;94600.00;;;;7393362;19;20216;-78
2022/05/10 05:40:43;;;;;;;7.38;5.90;;;15.20;99.90;16.90;94612.00;;;;7395416;19;20136;-78
2022/05/10 05:43:18;;;;;;;6.35;5.75;;;15.40;99.90;17.20;94620.00;;;;7397023;19;20200;-76
2022/05/10 05:45:53;;;;;;;7.78;5.80;;;15.60;49.40;17.40;94628.00;;;;7397444;19;20133;-77
2022/05/10 05:48:21;;;;;;;6.97;6.10;;;15.80;81.90;17.80;94614.00;;;;7396057;19;20208;-77
2022/05/10 05:50:48;;;;;;;9.27;5.63;;;16.00;1.00;17.90;94607.00;;;;7398062;19;20132;-77
2022/05/10 05:53:22;;;;;;;5.50;5.00;;;16.10;1.00;18.00;94606.00;;;;7396602;19;20472;-75
2022/05/10 05:55:49;;;;;;;6.28;5.68;;;16.30;1.00;18.30;94599.00;;;;7396106;19;20600;-77
2022/05/10 05:58:23;;;;;;;6.05;5.15;;;16.40;1.00;18.40;94605.00;;;;7392635;19;20201;-76
2022/05/10 06:00:56;;;;;;;9.05;5.25;;;16.60;1.00;18.70;94606.00;;;;7396107;19;20157;-78
2022/05/10 06:03:23;;;;;;;5.85;5.35;;;16.70;1.00;18.70;94606.00;;;;7398966;19;20137;-77
2022/05/10 06:05:50;;;;;;;6.38;5.30;;;16.90;1.00;18.90;94601.00;;;;7399011;19;20136;-77
2022/05/10 06:08:24;;;;;;;5.75;5.05;;;17.00;1.00;19.10;94601.00;;;;7399492;19;20145;-79
2022/05/10 06:10:52;;;;;;;6.40;5.35;;;17.10;1.00;19.30;94611.00;;;;7401576;19;20583;-78
2022/05/10 06:13:21;;;;;;;6.20;5.60;;;17.20;1.00;19.30;94620.00;;;;7402508;19;20617;-77
2022/05/10 06:15:55;;;;;;;5.65;5.13;;;17.30;1.00;19.50;94604.00;;;;7404382;19;20125;-76
2022/05/10 06:18:22;;;;;;;7.65;5.40;;;17.40;1.00;19.30;94600.00;;;;7399773;19;20623;-78
2022/05/10 06:20:49;;;;;;;6.45;5.30;;;17.50;1.00;19.60;94604.00;;;;7397693;19;20223;-79
2022/05/10 06:23:23;;;;;;;7.75;5.28;;;17.60;1.00;19.70;94613.00;;;;7397057;19;20601;-77
2022/05/10 06:25:50;;;;;;;5.88;5.38;;;17.90;1.00;19.80;94606.00;;;;7396089;19;20591;-78
2022/05/10 06:28:19;;;;;;;5.78;5.28;;;18.10;1.00;20.10;94611.00;;;;7397792;19;20125;-77
2022/05/10 06:30:55;;;;;;;5.57;5.05;;;18.30;1.00;20.40;94633.00;;;;7397728;19;20587;-77
2022/05/10 06:33:23;;;;;;;6.72;5.05;;;18.50;1.00;20.30;94613.00;;;;7395397;19;20528;-76
2022/05/10 06:35:50;;;;;;;7.03;5.43;;;18.60;1.00;20.30;94619.00;;;;7395834;19;20149;-77
2022/05/10 06:38:29;;;;;;;5.70;4.90;;;18.70;1.00;20.70;94602.00;;;;7393255;19;20173;-77
2022/05/10 06:41:01;;;;;;;9.45;5.25;;;18.70;1.00;20.50;94628.00;;;;7392599;19;20125;-79
2022/05/10 06:43:36;;;;;;;5.47;4.97;;;19.00;1.00;20.50;94625.00;;;;7393940;19;20583;-78
2022/05/10 06:46:14;;;;;;;5.82;4.97;;;18.90;1.00;20.30;94623.00;;;;7397526;19;20146;-78
2022/05/10 06:48:48;;;;;;;6.45;5.75;;;18.80;1.00;20.40;94596.00;;;;7390876;19;20148;-79
2022/05/10 06:51:19;;;;;;;8.70;5.38;;;18.90;1.00;20.70;94595.00;;;;7394202;19;20133;-79
2022/05/10 06:53:46;;;;;;;5.82;5.30;;;18.80;1.00;20.90;94614.00;;;;7393301;19;20133;-79
2022/05/10 06:56:28;;;;;;;5.57;5.13;;;18.70;1.00;21.00;94602.00;;;;7393083;19;20148;-79
2022/05/10 06:59:02;;;;;;;6.85;5.07;;;18.90;1.00;21.50;94613.00;;;;7392891;19;20129;-78
2022/05/10 07:01:35;;;;;;;5.57;5.00;;;19.00;1.00;21.40;94615.00;;;;7392685;19;20152;-79
2022/05/10 07:04:03;;;;;;;6.35;5.22;;;19.20;1.00;21.40;94615.00;;;;7393847;19;20137;-78
2022/05/10 07:06:30;;;;;;;5.10;4.70;;;19.40;1.00;21.40;94602.00;;;;7394286;19;20133;-79
2022/05/10 07:09:03;;;;;;;6.50;4.80;;;19.60;1.00;21.70;94592.00;;;;7393564;19;20133;-78
2022/05/10 07:11:36;;;;;;;5.90;5.30;;;19.70;1.00;21.90;94604.00;;;;7392508;19;20133;-77
2022/05/10 07:14:11;;;;;;;7.70;4.82;;;;;22.30;94622.00;;;;7393055;19;20125;-79
2022/05/10 07:16:38;;;;;;;6.65;4.97;;;;;22.20;94609.00;;;;7392947;19;20141;-77
2022/05/10 07:19:06;;;;;;;7.28;4.93;;;;;22.30;94618.00;;;;7392620;19;20182;-79
2022/05/10 07:21:41;;;;;;;9.43;5.13;;;;;22.40;94614.00;;;;7392278;19;20736;-80
2022/05/10 07:24:08;;;;;;;6.10;5.28;;;;;23.10;94609.00;;;;7394570;19;20129;-79
2022/05/10 07:26:36;;;;;;;8.65;5.05;;;;;22.80;94626.00;;;;7392798;19;20156;-78
2022/05/10 07:29:10;;;;;;;5.47;5.00;;;;;23.00;94628.00;;;;7392158;19;20133;-79
2022/05/10 07:31:38;;;;;;;5.40;4.90;;;;;22.60;94621.00;;;;7392364;19;20137;-79
2022/05/10 07:34:06;;;;;;;6.05;5.10;;;;;22.50;94615.00;;;;7391676;19;20175;-78
2022/05/10 07:36:41;;;;;;;5.53;5.03;;;;;22.80;94615.00;;;;7392419;19;20139;-78
2022/05/10 07:39:11;;;;;;;5.20;4.80;;;;;22.90;94619.00;;;;7392601;19;20666;-77
2022/05/10 07:41:39;;;;;;;4.75;4.35;;;;;23.20;94620.00;;;;7390135;19;20143;-78
2022/05/10 07:44:13;;;;;;;5.50;4.78;;;;;23.60;94621.00;;;;7388753;19;20174;-77
2022/05/10 07:46:41;;;;;;;6.40;4.85;;;;;23.70;94614.00;;;;7389976;19;20477;-79
2022/05/10 07:49:08;;;;;;;5.60;5.05;;;;;23.60;94624.00;;;;7391310;19;20674;-78
2022/05/10 07:51:43;;;;;;;5.30;4.80;;;;;24.20;94620.00;;;;7391016;19;20148;-79
2022/05/10 07:54:11;;;;;;;5.50;5.00;;;;;24.10;94620.00;;;;7392660;19;20149;-79
2022/05/10 07:56:38;;;;;;;6.75;4.68;;;;;24.20;94623.00;;;;7391384;19;20176;-78
2022/05/10 07:59:19;;;;;;;5.45;4.28;;;;;24.00;94615.00;;;;7388338;19;20148;-78
2022/05/10 08:01:47;;;;;;;4.63;4.22;;;;;24.20;94616.00;;;;7393651;19;20176;-78
2022/05/10 08:04:21;;;;;;;4.55;4.15;;;;;24.10;94615.00;;;;7392001;19;20587;-77
2022/05/10 08:06:48;;;;;;;4.35;4.05;;;;;24.40;94608.00;;;;7396473;19;20170;-79
2022/05/10 08:09:16;;;;;;;5.75;4.85;;;;;24.70;94605.00;;;;7395085;19;20586;-78
2022/05/10 08:11:50;;;;;;;5.22;4.72;;;;;24.90;94605.00;;;;7394986;19;20527;-80
2022/05/10 08:14:18;;;;;;;6.97;4.35;;;;;25.50;94605.00;;;;7392811;19;20172;-77
2022/05/10 08:16:46;;;;;;;5.25;4.38;;;;;26.20;94603.00;;;;7393288;19;20128;-78
2022/05/10 08:19:20;;;;;;;4.10;3.70;;;;;26.30;94602.00;;;;7394806;19;20144;-80
2022/05/10 08:21:47;;;;;;;4.28;3.88;;;;;26.40;94605.00;;;;7393765;19;21509;-79
2022/05/10 08:24:15;;;;;;;5.47;4.47;;;;;26.10;94592.00;;;;7390812;19;20139;-78
2022/05/10 08:26:48;;;;;;;4.95;4.50;;;;;26.90;94588.00;;;;7392824;19;20152;-78
2022/05/10 08:29:16;;;;;;;4.72;4.32;;;;;27.10;94593.00;;;;7392366;19;20165;-78
2022/05/10 08:31:43;;;;;;;4.80;4.40;;;;;28.30;94597.00;;;;7395921;19;20140;-77
2022/05/10 08:34:19;;;;;;;4.72;4.32;;;;;28.40;94601.00;;;;7392726;19;20235;-80
2022/05/10 08:36:52;;;;;;;6.70;4.50;;;;;27.10;94606.00;;;;7394375;19;20144;-79
2022/05/10 08:39:27;;;;;;;4.85;4.25;;;;;26.20;94603.00;;;;7395870;19;20148;-80
2022/05/10 08:42:08;;;;;;;4.70;4.30;;;;;25.90;94599.00;;;;7390137;19;20145;-81
2022/05/10 08:44:44;;;;;;;5.07;4.00;;;;;26.20;94593.00;;;;7394867;19;20215;-79
2022/05/10 08:47:14;;;;;;;7.13;4.10;;;;;25.60;94617.00;;;;7399933;19;20133;-80
2022/05/10 08:49:59;;;;;;;4.70;4.28;;;;;24.00;94610.00;;;;7396905;19;20139;-80
2022/05/10 08:52:48;;;;;;;7.15;4.82;;;;;23.70;94609.00;;;;7397986;19;20499;-79
2022/05/10 08:55:31;;;;;;;5.07;4.63;;;;;23.70;94623.00;;;;7398207;19;20156;-78
2022/05/10 08:58:30;;;;;;;5.20;4.55;;;;;23.00;94634.00;;;;7393830;19;20489;-76
2022/05/10 09:01:33;;;;;;;5.03;4.63;;;22.10;99.90;22.70;94619.00;;;;7401820;19;20496;-78
2022/05/10 09:04:24;;;;;;;4.60;4.20;;;22.00;99.90;22.30;94646.00;;;;7403036;19;20221;-78
2022/05/10 09:07:37;;;;;;;4.93;4.53;;;21.80;99.90;22.20;94632.00;;;;7404225;19;20196;-78
2022/05/10 09:10:30;;;;;;;4.57;4.18;;;21.60;99.90;21.60;94638.00;;;;7400799;19;20149;-78
2022/05/10 09:13:10;;;;;;;5.75;4.85;;;21.40;99.90;21.90;94617.00;;;;7403745;19;20129;-77
2022/05/10 09:15:49;;;;;;;7.63;5.10;;;21.20;99.90;21.60;94616.00;;;;7404004;19;20151;-77
2022/05/10 09:18:40;;;;;;;4.82;4.40;;;21.10;99.90;21.40;94622.00;;;;7401028;19;20133;-78
2022/05/10 09:21:27;;;;;;;4.85;4.30;;;21.00;99.90;21.40;94628.00;;;;7402130;19;20144;-77
2022/05/10 09:24:23;;;;;;;5.53;4.25;;;20.90;99.90;21.00;94640.00;;;;7400669;19;20141;-79
2022/05/10 09:26:56;;;;;;;5.32;4.15;;;20.90;99.90;21.30;94614.00;;;;7398516;19;20140;-77
2022/05/10 09:29:40;;;;;;;4.70;4.22;;;20.70;99.90;21.20;94642.00;;;;7403338;19;20133;-76
2022/05/10 09:35:27;;;;;;;4.43;4.03;;;20.50;99.90;21.20;94608.00;;;;7402059;19;20141;-76
2022/05/10 09:38:02;;;;;;;4.57;4.18;;;20.40;99.90;21.40;94639.00;;;;7399754;19;20502;-76
2022/05/10 09:40:41;;;;;;;6.50;4.80;;;20.40;99.90;21.50;94638.00;;;;7400103;19;20133;-78
2022/05/10 09:43:26;;;;;;;5.13;4.65;;;20.50;99.90;21.50;94643.00;;;;7399734;19;20135;-76
2022/05/10 09:46:23;;;;;;;4.60;4.25;;;20.50;99.90;21.90;94631.00;;;;7400344;19;20156;-76
2022/05/10 09:48:51;;;;;;;5.97;4.78;;;20.60;99.90;23.20;94586.00;;;;7398466;19;20145;-77
2022/05/10 09:51:41;;;;;;;5.07;4.57;;;20.90;99.90;25.50;94579.00;;;;7404014;19;20137;-77
2022/05/10 09:54:21;;;;;;;5.28;4.18;;;22.00;99.90;27.20;94570.00;;;;7400767;19;20157;-76
2022/05/10 09:57:03;;;;;;;5.95;4.38;;;23.10;99.90;28.00;94544.00;;;;7401257;19;20180;-77
2022/05/10 09:59:47;;;;;;;5.28;4.28;;;24.10;99.90;28.60;94568.00;;;;7402285;19;20161;-77
2022/05/10 10:02:30;;;;;;;5.53;4.32;;;25.20;99.90;29.40;94577.00;;;;7398178;19;20487;-77
2022/05/10 10:04:59;;;;;;;4.75;4.35;;;26.30;99.90;29.80;94567.00;;;;7398926;19;20129;-77
2022/05/10 10:07:32;;;;;;;4.38;3.95;;;27.00;99.90;30.20;94571.00;;;;7400453;19;20475;-78
2022/05/10 10:10:20;;;;;;;4.88;3.90;;;27.80;99.90;28.70;94563.00;;;;7395736;19;20680;-78
2022/05/10 10:12:54;;;;;;;5.97;4.70;;;27.40;99.90;29.00;94558.00;;;;7393538;19;20922;-76
2022/05/10 10:15:43;;;;;;;4.38;4.07;;;27.30;99.90;29.10;94558.00;;;;7400726;19;20124;-77
2022/05/10 10:18:46;;;;;;;4.50;4.10;;;27.90;99.90;29.40;94571.00;;;;7398368;19;20136;-78
2022/05/10 10:21:57;;;;;;;4.60;4.20;;;27.80;99.90;30.60;94561.00;;;;7398568;19;20480;-75
2022/05/10 10:25:22;;;;;;;4.00;3.70;;;28.30;99.90;30.50;94560.00;;;;7397295;19;20132;-77
2022/05/10 10:28:07;;;;;;;6.28;4.45;;;28.70;99.90;28.70;94603.00;;;;7398168;19;20499;-78
2022/05/10 10:31:16;;;;;;;4.95;3.83;;;28.30;99.90;26.10;94611.00;;;;7399137;19;20137;-78
2022/05/10 10:34:06;;;;;;;7.18;4.18;;;27.10;99.90;25.50;94616.00;;;;7398701;19;20183;-77
2022/05/10 10:36:55;;;;;;;4.72;3.90;;;26.30;99.90;24.40;94608.00;;;;7398247;19;20152;-78
2022/05/10 10:39:54;;;;;;;4.90;4.40;;;25.00;99.90;23.70;94612.00;;;;7397951;19;20145;-78
2022/05/10 10:42:56;;;;;;;4.90;4.50;;;23.80;99.90;23.80;94596.00;;;;7396071;19;20619;-78
2022/05/10 10:45:55;;;;;;;4.85;4.10;;;23.30;99.90;23.90;94603.00;;;;7399742;19;20654;-78
2022/05/10 10:48:55;;;;;;;5.03;4.53;;;23.00;99.90;23.70;94605.00;;;;7393698;19;20216;-77
2022/05/10 10:51:29;;;;;;;6.32;4.53;;;23.10;99.90;23.90;94573.00;;;;7397693;19;20596;-78
2022/05/10 10:54:07;;;;;;;5.40;4.68;;;23.10;99.90;25.00;94569.00;;;;7396138;19;20603;-77
2022/05/10 10:57:08;;;;;;;5.18;4.65;;;23.40;99.90;25.90;94561.00;;;;7396844;19;20749;-78
2022/05/10 11:00:10;;;;;;;6.78;4.20;;;23.70;99.90;28.00;94561.00;;;;7401483;19;20148;-78
2022/05/10 11:03:08;;;;;;;4.50;4.05;;;25.40;99.90;28.80;94551.00;;;;7398485;19;20518;-78
2022/05/10 11:06:08;;;;;;;4.97;4.32;;;26.50;99.90;28.80;94561.00;;;;7402416;19;20611;-79
2022/05/10 11:09:05;;;;;;;7.32;4.45;;;26.70;99.90;27.80;94582.00;;;;7400256;19;20181;-77
2022/05/10 11:12:20;;;;;;;5.75;4.30;;;26.90;99.90;26.60;94557.00;;;;7399335;19;20187;-77
2022/05/10 11:15:20;;;;;;;4.45;4.00;;;25.80;99.90;25.40;94581.00;;;;7397614;19;20464;-76
2022/05/10 11:18:10;;;;;;;8.23;4.97;;;25.30;99.90;24.70;94579.00;;;;7397083;19;20453;-76
2022/05/10 11:21:11;;;;;;;7.43;4.40;;;25.20;99.90;26.30;94574.00;;;;7395091;19;20145;-76
2022/05/10 11:24:17;;;;;;;6.07;4.20;;;25.40;99.90;25.20;94565.00;;;;7396789;19;20615;-76
2022/05/10 11:27:13;;;;;;;8.05;4.30;;;25.70;99.90;27.30;94545.00;;;;7397356;19;20472;-76
2022/05/10 11:30:05;;;;;;;6.45;3.90;;;25.70;99.90;28.50;94546.00;;;;7398493;19;20813;-77
2022/05/10 11:32:54;;;;;;;5.63;4.07;;;26.70;99.90;28.20;94553.00;;;;7395647;19;20144;-76
2022/05/10 11:35:48;;;;;;;5.93;4.53;;;27.00;99.90;27.10;94560.00;;;;7397567;19;20212;-76
2022/05/10 11:38:58;;;;;;;4.63;4.22;;;26.40;99.90;25.20;94562.00;;;;7396069;19;20152;-75
2022/05/10 11:41:55;;;;;;;7.07;4.13;;;26.10;99.90;25.40;94562.00;;;;7395882;19;20148;-76
2022/05/10 11:45:14;;;;;;;4.78;4.28;;;25.60;99.90;25.30;94555.00;;;;7392300;19;20154;-77
2022/05/10 11:48:08;;;;;;;4.93;4.43;;;25.10;99.90;27.40;94550.00;;;;7398631;19;20682;-76
2022/05/10 11:54:55;;;;;;;4.95;4.55;;;26.00;99.90;28.10;94542.00;;;;7394564;19;20501;-76
2022/05/10 11:57:24;;;;;;;5.05;4.47;;;26.70;99.90;27.40;94548.00;;;;7396823;19;20173;-76
2022/05/10 12:00:33;;;;;;;4.68;4.22;;;26.70;99.90;26.30;94550.00;;;;7394150;19;20153;-76
2022/05/10 12:03:12;;;;;;;4.63;4.22;;;26.40;99.90;25.50;94561.00;;;;7392077;19;20212;-76
2022/05/10 12:06:22;;;;;;;5.05;4.07;;;25.60;99.90;24.70;94557.00;;;;7393391;19;20479;-77
2022/05/10 12:08:57;;;;;;;4.70;4.32;;;24.90;99.90;24.50;94554.00;;;;7395675;19;20137;-77
2022/05/10 12:11:38;;;;;;;5.60;4.60;;;24.30;99.90;24.10;94553.00;;;;7396139;19;20139;-77